sensor_id;sensor_type;location;lat;lon;timestamp;P1;durP1;ratioP1;P2;durP2;ratioP2
63714;SDS011;49858;48.956;9.076;2022-08-19T00:00:01;18.27;;;10.88;;
63714;SDS011;49858;48.956;9.076;2022-08-19T00:02:32;16.40;;;10.80;;
63714;SDS011;49858;48.956;9.076;2022-08-19T00:05:00;15.50;;;11.05;;
63714;SDS011;49858;48.956;9.076;2022-08-19T00:07:28;17.17;;;10.82;;
63714;SDS011;49858;48.956;9.076;2022-08-19T00:09:56;17.92;;;11.00;;
63714;SDS011;49858;48.956;9.076;2022-08-19T00:12:24;18.02;;;10.70;;
63714;SDS011;49858;48.956;9.076;2022-08-19T00:14:52;14.93;;;11.00;;
63714;SDS011;49858;48.956;9.076;2022-08-19T00:17:20;14.95;;;10.25;;
63714;SDS011;49858;48.956;9.076;2022-08-19T00:19:49;14.48;;;10.60;;
63714;SDS011;49858;48.956;9.076;2022-08-19T00:22:17;16.23;;;10.43;;
63714;SDS011;49858;48.956;9.076;2022-08-19T00:24:45;17.30;;;10.82;;
63714;SDS011;49858;48.956;9.076;2022-08-19T00:27:16;17.40;;;10.35;;
63714;SDS011;49858;48.956;9.076;2022-08-19T00:29:51;14.82;;;11.32;;
63714;SDS011;49858;48.956;9.076;2022-08-19T00:32:19;14.73;;;10.73;;
63714;SDS011;49858;48.956;9.076;2022-08-19T00:34:50;16.85;;;11.50;;
63714;SDS011;49858;48.956;9.076;2022-08-19T00:37:19;16.67;;;11.27;;
63714;SDS011;49858;48.956;9.076;2022-08-19T00:39:48;14.90;;;9.18;;
63714;SDS011;49858;48.956;9.076;2022-08-19T00:42:17;16.13;;;10.68;;
63714;SDS011;49858;48.956;9.076;2022-08-19T00:44:46;18.95;;;11.93;;
63714;SDS011;49858;48.956;9.076;2022-08-19T00:47:15;16.25;;;10.63;;
63714;SDS011;49858;48.956;9.076;2022-08-19T00:49:45;18.00;;;11.27;;
63714;SDS011;49858;48.956;9.076;2022-08-19T00:52:20;16.63;;;11.60;;
63714;SDS011;49858;48.956;9.076;2022-08-19T00:54:50;19.13;;;11.52;;
63714;SDS011;49858;48.956;9.076;2022-08-19T00:57:20;16.38;;;10.40;;
63714;SDS011;49858;48.956;9.076;2022-08-19T00:59:52;17.30;;;10.85;;
63714;SDS011;49858;48.956;9.076;2022-08-19T01:02:28;18.13;;;11.20;;
63714;SDS011;49858;48.956;9.076;2022-08-19T01:04:58;17.38;;;10.35;;
63714;SDS011;49858;48.956;9.076;2022-08-19T01:07:29;19.90;;;12.80;;
63714;SDS011;49858;48.956;9.076;2022-08-19T01:10:04;19.58;;;11.88;;
63714;SDS011;49858;48.956;9.076;2022-08-19T01:12:35;17.10;;;10.32;;
63714;SDS011;49858;48.956;9.076;2022-08-19T01:15:03;14.55;;;8.48;;
63714;SDS011;49858;48.956;9.076;2022-08-19T01:17:32;18.83;;;11.75;;
63714;SDS011;49858;48.956;9.076;2022-08-19T01:20:01;19.45;;;11.73;;
63714;SDS011;49858;48.956;9.076;2022-08-19T01:22:32;19.67;;;10.20;;
63714;SDS011;49858;48.956;9.076;2022-08-19T01:27:41;20.52;;;11.25;;
63714;SDS011;49858;48.956;9.076;2022-08-19T01:30:12;17.30;;;11.07;;
63714;SDS011;49858;48.956;9.076;2022-08-19T01:32:42;19.80;;;12.40;;
63714;SDS011;49858;48.956;9.076;2022-08-19T01:35:11;18.13;;;12.25;;
63714;SDS011;49858;48.956;9.076;2022-08-19T01:37:45;19.02;;;12.30;;
63714;SDS011;49858;48.956;9.076;2022-08-19T01:40:14;18.25;;;11.00;;
63714;SDS011;49858;48.956;9.076;2022-08-19T01:42:42;18.65;;;11.55;;
63714;SDS011;49858;48.956;9.076;2022-08-19T01:45:10;21.63;;;12.32;;
63714;SDS011;49858;48.956;9.076;2022-08-19T01:47:38;22.05;;;12.77;;
63714;SDS011;49858;48.956;9.076;2022-08-19T01:50:07;17.75;;;10.93;;
63714;SDS011;49858;48.956;9.076;2022-08-19T01:52:37;18.70;;;10.82;;
63714;SDS011;49858;48.956;9.076;2022-08-19T01:55:10;19.05;;;11.32;;
63714;SDS011;49858;48.956;9.076;2022-08-19T01:57:41;19.98;;;12.25;;
63714;SDS011;49858;48.956;9.076;2022-08-19T02:00:14;20.25;;;12.20;;
63714;SDS011;49858;48.956;9.076;2022-08-19T02:02:43;18.45;;;11.38;;
63714;SDS011;49858;48.956;9.076;2022-08-19T02:05:11;20.45;;;10.93;;
63714;SDS011;49858;48.956;9.076;2022-08-19T02:07:40;21.48;;;12.38;;
63714;SDS011;49858;48.956;9.076;2022-08-19T02:10:11;20.33;;;12.90;;
63714;SDS011;49858;48.956;9.076;2022-08-19T02:12:42;18.85;;;11.32;;
63714;SDS011;49858;48.956;9.076;2022-08-19T02:15:10;21.70;;;11.00;;
63714;SDS011;49858;48.956;9.076;2022-08-19T02:17:39;21.02;;;12.73;;
63714;SDS011;49858;48.956;9.076;2022-08-19T02:20:08;15.38;;;8.35;;
63714;SDS011;49858;48.956;9.076;2022-08-19T02:22:37;21.23;;;12.80;;
63714;SDS011;49858;48.956;9.076;2022-08-19T02:25:09;22.23;;;13.20;;
63714;SDS011;49858;48.956;9.076;2022-08-19T02:27:38;25.23;;;14.32;;
63714;SDS011;49858;48.956;9.076;2022-08-19T02:30:08;23.52;;;13.57;;
63714;SDS011;49858;48.956;9.076;2022-08-19T02:32:43;22.27;;;12.77;;
63714;SDS011;49858;48.956;9.076;2022-08-19T02:35:11;25.90;;;14.20;;
63714;SDS011;49858;48.956;9.076;2022-08-19T02:37:41;23.50;;;14.30;;
63714;SDS011;49858;48.956;9.076;2022-08-19T02:40:25;21.10;;;12.82;;
63714;SDS011;49858;48.956;9.076;2022-08-19T02:42:53;18.60;;;9.85;;
63714;SDS011;49858;48.956;9.076;2022-08-19T02:45:21;23.80;;;14.70;;
63714;SDS011;49858;48.956;9.076;2022-08-19T02:47:49;22.50;;;13.35;;
63714;SDS011;49858;48.956;9.076;2022-08-19T02:50:17;25.58;;;15.35;;
63714;SDS011;49858;48.956;9.076;2022-08-19T02:52:45;22.30;;;13.35;;
63714;SDS011;49858;48.956;9.076;2022-08-19T02:55:13;25.48;;;13.63;;
63714;SDS011;49858;48.956;9.076;2022-08-19T02:57:42;24.67;;;15.80;;
63714;SDS011;49858;48.956;9.076;2022-08-19T03:00:10;23.52;;;15.10;;
63714;SDS011;49858;48.956;9.076;2022-08-19T03:02:39;22.58;;;13.57;;
63714;SDS011;49858;48.956;9.076;2022-08-19T03:05:07;25.33;;;14.65;;
63714;SDS011;49858;48.956;9.076;2022-08-19T03:07:36;25.80;;;15.43;;
63714;SDS011;49858;48.956;9.076;2022-08-19T03:10:05;24.35;;;15.48;;
63714;SDS011;49858;48.956;9.076;2022-08-19T03:12:35;25.13;;;14.15;;
63714;SDS011;49858;48.956;9.076;2022-08-19T03:15:06;26.30;;;14.82;;
63714;SDS011;49858;48.956;9.076;2022-08-19T03:17:35;24.83;;;15.20;;
63714;SDS011;49858;48.956;9.076;2022-08-19T03:20:04;21.48;;;14.00;;
63714;SDS011;49858;48.956;9.076;2022-08-19T03:22:33;23.40;;;14.13;;
63714;SDS011;49858;48.956;9.076;2022-08-19T03:25:00;30.55;;;16.60;;
63714;SDS011;49858;48.956;9.076;2022-08-19T03:27:28;23.55;;;15.57;;
63714;SDS011;49858;48.956;9.076;2022-08-19T03:30:00;28.40;;;15.65;;
63714;SDS011;49858;48.956;9.076;2022-08-19T03:32:30;29.20;;;15.57;;
63714;SDS011;49858;48.956;9.076;2022-08-19T03:34:58;26.10;;;16.08;;
63714;SDS011;49858;48.956;9.076;2022-08-19T03:37:26;24.63;;;15.60;;
63714;SDS011;49858;48.956;9.076;2022-08-19T03:39:54;27.92;;;17.13;;
63714;SDS011;49858;48.956;9.076;2022-08-19T03:42:22;24.95;;;16.17;;
63714;SDS011;49858;48.956;9.076;2022-08-19T03:44:58;26.23;;;16.77;;
63714;SDS011;49858;48.956;9.076;2022-08-19T03:47:26;26.58;;;17.15;;
63714;SDS011;49858;48.956;9.076;2022-08-19T03:49:55;28.27;;;16.50;;
63714;SDS011;49858;48.956;9.076;2022-08-19T03:52:23;25.27;;;16.40;;
63714;SDS011;49858;48.956;9.076;2022-08-19T03:54:51;29.58;;;17.17;;
63714;SDS011;49858;48.956;9.076;2022-08-19T03:57:19;28.00;;;17.50;;
63714;SDS011;49858;48.956;9.076;2022-08-19T03:59:57;26.40;;;16.60;;
63714;SDS011;49858;48.956;9.076;2022-08-19T04:02:39;26.38;;;16.60;;
63714;SDS011;49858;48.956;9.076;2022-08-19T04:05:25;28.63;;;16.88;;
63714;SDS011;49858;48.956;9.076;2022-08-19T04:07:54;29.67;;;16.83;;
63714;SDS011;49858;48.956;9.076;2022-08-19T04:10:25;28.02;;;17.52;;
63714;SDS011;49858;48.956;9.076;2022-08-19T04:12:52;27.33;;;16.85;;
63714;SDS011;49858;48.956;9.076;2022-08-19T04:15:20;30.90;;;17.65;;
63714;SDS011;49858;48.956;9.076;2022-08-19T04:17:48;28.08;;;17.35;;
63714;SDS011;49858;48.956;9.076;2022-08-19T04:20:16;29.08;;;17.13;;
63714;SDS011;49858;48.956;9.076;2022-08-19T04:22:46;27.85;;;17.73;;
63714;SDS011;49858;48.956;9.076;2022-08-19T04:25:14;25.95;;;17.42;;
63714;SDS011;49858;48.956;9.076;2022-08-19T04:27:42;26.77;;;16.35;;
63714;SDS011;49858;48.956;9.076;2022-08-19T04:30:12;25.95;;;17.33;;
63714;SDS011;49858;48.956;9.076;2022-08-19T04:32:40;26.77;;;17.80;;
63714;SDS011;49858;48.956;9.076;2022-08-19T04:35:09;29.20;;;17.55;;
63714;SDS011;49858;48.956;9.076;2022-08-19T04:37:46;23.23;;;13.35;;
63714;SDS011;49858;48.956;9.076;2022-08-19T04:40:13;28.70;;;17.92;;
63714;SDS011;49858;48.956;9.076;2022-08-19T04:42:59;30.50;;;17.65;;
63714;SDS011;49858;48.956;9.076;2022-08-19T04:45:27;27.30;;;17.17;;
63714;SDS011;49858;48.956;9.076;2022-08-19T04:48:05;28.45;;;18.08;;
63714;SDS011;49858;48.956;9.076;2022-08-19T04:50:53;28.40;;;17.63;;
63714;SDS011;49858;48.956;9.076;2022-08-19T04:53:25;28.05;;;15.73;;
63714;SDS011;49858;48.956;9.076;2022-08-19T04:55:55;28.15;;;17.42;;
63714;SDS011;49858;48.956;9.076;2022-08-19T04:58:24;27.38;;;17.15;;
63714;SDS011;49858;48.956;9.076;2022-08-19T05:00:54;25.90;;;17.30;;
63714;SDS011;49858;48.956;9.076;2022-08-19T05:03:22;27.77;;;16.67;;
63714;SDS011;49858;48.956;9.076;2022-08-19T05:05:55;30.00;;;17.58;;
63714;SDS011;49858;48.956;9.076;2022-08-19T05:08:26;29.92;;;16.00;;
63714;SDS011;49858;48.956;9.076;2022-08-19T05:10:57;32.22;;;17.95;;
63714;SDS011;49858;48.956;9.076;2022-08-19T05:13:24;29.63;;;17.98;;
63714;SDS011;49858;48.956;9.076;2022-08-19T05:15:53;30.38;;;19.17;;
63714;SDS011;49858;48.956;9.076;2022-08-19T05:18:22;26.45;;;17.08;;
63714;SDS011;49858;48.956;9.076;2022-08-19T05:21:08;29.55;;;18.15;;
63714;SDS011;49858;48.956;9.076;2022-08-19T05:23:56;27.25;;;16.48;;
63714;SDS011;49858;48.956;9.076;2022-08-19T05:26:24;23.58;;;15.38;;
63714;SDS011;49858;48.956;9.076;2022-08-19T05:28:53;29.00;;;16.60;;
63714;SDS011;49858;48.956;9.076;2022-08-19T05:31:21;30.48;;;18.00;;
63714;SDS011;49858;48.956;9.076;2022-08-19T05:33:49;28.58;;;16.35;;
63714;SDS011;49858;48.956;9.076;2022-08-19T05:36:17;27.85;;;17.30;;
63714;SDS011;49858;48.956;9.076;2022-08-19T05:38:46;28.08;;;17.88;;
63714;SDS011;49858;48.956;9.076;2022-08-19T05:41:17;29.52;;;17.52;;
63714;SDS011;49858;48.956;9.076;2022-08-19T05:43:45;22.02;;;14.07;;
63714;SDS011;49858;48.956;9.076;2022-08-19T05:46:16;27.15;;;15.27;;
63714;SDS011;49858;48.956;9.076;2022-08-19T05:48:53;31.30;;;17.92;;
63714;SDS011;49858;48.956;9.076;2022-08-19T05:51:22;33.50;;;17.83;;
63714;SDS011;49858;48.956;9.076;2022-08-19T05:53:54;25.50;;;16.98;;
63714;SDS011;49858;48.956;9.076;2022-08-19T05:56:23;29.85;;;17.23;;
63714;SDS011;49858;48.956;9.076;2022-08-19T05:58:52;32.45;;;19.27;;
63714;SDS011;49858;48.956;9.076;2022-08-19T06:01:20;33.78;;;19.02;;
63714;SDS011;49858;48.956;9.076;2022-08-19T06:03:48;28.45;;;17.88;;
63714;SDS011;49858;48.956;9.076;2022-08-19T06:06:16;26.33;;;16.50;;
63714;SDS011;49858;48.956;9.076;2022-08-19T06:08:45;26.10;;;14.93;;
63714;SDS011;49858;48.956;9.076;2022-08-19T06:11:17;32.50;;;19.50;;
63714;SDS011;49858;48.956;9.076;2022-08-19T06:13:50;29.48;;;18.95;;
63714;SDS011;49858;48.956;9.076;2022-08-19T06:16:25;29.25;;;16.60;;
63714;SDS011;49858;48.956;9.076;2022-08-19T06:18:54;28.30;;;16.92;;
63714;SDS011;49858;48.956;9.076;2022-08-19T06:21:24;31.00;;;17.75;;
63714;SDS011;49858;48.956;9.076;2022-08-19T06:23:54;29.33;;;18.58;;
63714;SDS011;49858;48.956;9.076;2022-08-19T06:26:23;27.35;;;16.42;;
63714;SDS011;49858;48.956;9.076;2022-08-19T06:28:54;31.70;;;17.85;;
63714;SDS011;49858;48.956;9.076;2022-08-19T06:31:24;27.45;;;16.75;;
63714;SDS011;49858;48.956;9.076;2022-08-19T06:33:53;26.90;;;17.52;;
63714;SDS011;49858;48.956;9.076;2022-08-19T06:36:22;27.08;;;17.77;;
63714;SDS011;49858;48.956;9.076;2022-08-19T06:38:53;27.52;;;17.58;;
63714;SDS011;49858;48.956;9.076;2022-08-19T06:41:21;27.25;;;17.20;;
63714;SDS011;49858;48.956;9.076;2022-08-19T06:43:49;25.73;;;17.08;;
63714;SDS011;49858;48.956;9.076;2022-08-19T06:46:23;28.70;;;17.35;;
63714;SDS011;49858;48.956;9.076;2022-08-19T06:48:51;25.38;;;16.73;;
63714;SDS011;49858;48.956;9.076;2022-08-19T06:51:20;26.20;;;17.42;;
63714;SDS011;49858;48.956;9.076;2022-08-19T06:53:50;27.52;;;17.08;;
63714;SDS011;49858;48.956;9.076;2022-08-19T06:56:22;25.90;;;17.40;;
63714;SDS011;49858;48.956;9.076;2022-08-19T06:58:57;22.92;;;16.77;;
63714;SDS011;49858;48.956;9.076;2022-08-19T07:01:27;23.00;;;16.08;;
63714;SDS011;49858;48.956;9.076;2022-08-19T07:03:55;26.27;;;16.15;;
63714;SDS011;49858;48.956;9.076;2022-08-19T07:06:23;26.10;;;15.95;;
63714;SDS011;49858;48.956;9.076;2022-08-19T07:09:10;23.17;;;15.00;;
63714;SDS011;49858;48.956;9.076;2022-08-19T07:11:44;24.33;;;15.43;;
63714;SDS011;49858;48.956;9.076;2022-08-19T07:14:13;21.88;;;15.60;;
63714;SDS011;49858;48.956;9.076;2022-08-19T07:16:47;23.42;;;15.52;;
63714;SDS011;49858;48.956;9.076;2022-08-19T07:19:17;23.05;;;14.98;;
63714;SDS011;49858;48.956;9.076;2022-08-19T07:21:46;21.98;;;15.63;;
63714;SDS011;49858;48.956;9.076;2022-08-19T07:24:16;29.92;;;15.10;;
63714;SDS011;49858;48.956;9.076;2022-08-19T07:26:44;21.50;;;15.27;;
63714;SDS011;49858;48.956;9.076;2022-08-19T07:29:18;22.40;;;14.43;;
63714;SDS011;49858;48.956;9.076;2022-08-19T07:31:52;23.35;;;15.38;;
63714;SDS011;49858;48.956;9.076;2022-08-19T07:34:22;19.58;;;13.27;;
63714;SDS011;49858;48.956;9.076;2022-08-19T07:36:51;22.45;;;14.73;;
63714;SDS011;49858;48.956;9.076;2022-08-19T07:39:21;19.45;;;13.05;;
63714;SDS011;49858;48.956;9.076;2022-08-19T07:41:52;23.92;;;14.55;;
63714;SDS011;49858;48.956;9.076;2022-08-19T07:44:20;19.15;;;13.98;;
63714;SDS011;49858;48.956;9.076;2022-08-19T07:46:50;20.73;;;13.65;;
63714;SDS011;49858;48.956;9.076;2022-08-19T07:49:22;20.77;;;14.73;;
63714;SDS011;49858;48.956;9.076;2022-08-19T07:51:51;21.73;;;13.85;;
63714;SDS011;49858;48.956;9.076;2022-08-19T07:54:21;21.45;;;14.45;;
63714;SDS011;49858;48.956;9.076;2022-08-19T07:56:50;18.58;;;13.02;;
63714;SDS011;49858;48.956;9.076;2022-08-19T07:59:19;22.85;;;13.93;;
63714;SDS011;49858;48.956;9.076;2022-08-19T08:01:49;20.98;;;13.98;;
63714;SDS011;49858;48.956;9.076;2022-08-19T08:04:20;21.67;;;14.30;;
63714;SDS011;49858;48.956;9.076;2022-08-19T08:07:06;20.85;;;13.25;;
63714;SDS011;49858;48.956;9.076;2022-08-19T08:09:57;20.27;;;13.23;;
63714;SDS011;49858;48.956;9.076;2022-08-19T08:12:30;20.50;;;13.82;;
63714;SDS011;49858;48.956;9.076;2022-08-19T08:15:02;19.88;;;13.38;;
63714;SDS011;49858;48.956;9.076;2022-08-19T08:17:35;19.50;;;12.50;;
63714;SDS011;49858;48.956;9.076;2022-08-19T08:20:17;19.77;;;13.23;;
63714;SDS011;49858;48.956;9.076;2022-08-19T08:22:46;21.10;;;12.75;;
63714;SDS011;49858;48.956;9.076;2022-08-19T08:25:35;23.40;;;13.73;;
63714;SDS011;49858;48.956;9.076;2022-08-19T08:28:04;19.63;;;13.20;;
63714;SDS011;49858;48.956;9.076;2022-08-19T08:30:36;24.08;;;12.90;;
63714;SDS011;49858;48.956;9.076;2022-08-19T08:35:44;18.52;;;12.60;;
63714;SDS011;49858;48.956;9.076;2022-08-19T08:38:16;17.55;;;10.43;;
63714;SDS011;49858;48.956;9.076;2022-08-19T08:40:45;21.65;;;12.48;;
63714;SDS011;49858;48.956;9.076;2022-08-19T08:43:22;20.60;;;13.15;;
63714;SDS011;49858;48.956;9.076;2022-08-19T08:45:59;19.52;;;12.95;;
63714;SDS011;49858;48.956;9.076;2022-08-19T08:48:35;18.63;;;12.73;;
63714;SDS011;49858;48.956;9.076;2022-08-19T08:51:08;20.95;;;12.60;;
63714;SDS011;49858;48.956;9.076;2022-08-19T08:53:45;19.67;;;13.23;;
63714;SDS011;49858;48.956;9.076;2022-08-19T08:56:21;17.33;;;11.63;;
63714;SDS011;49858;48.956;9.076;2022-08-19T08:58:51;20.60;;;13.18;;
63714;SDS011;49858;48.956;9.076;2022-08-19T09:01:24;19.77;;;12.57;;
63714;SDS011;49858;48.956;9.076;2022-08-19T09:03:57;20.60;;;13.98;;
63714;SDS011;49858;48.956;9.076;2022-08-19T09:06:29;18.65;;;13.27;;
63714;SDS011;49858;48.956;9.076;2022-08-19T09:09:12;20.60;;;12.55;;
63714;SDS011;49858;48.956;9.076;2022-08-19T09:11:50;20.42;;;14.00;;
63714;SDS011;49858;48.956;9.076;2022-08-19T09:14:31;21.90;;;12.55;;
63714;SDS011;49858;48.956;9.076;2022-08-19T09:17:18;17.35;;;11.90;;
63714;SDS011;49858;48.956;9.076;2022-08-19T09:20:00;18.40;;;12.15;;
63714;SDS011;49858;48.956;9.076;2022-08-19T09:22:34;18.50;;;11.90;;
63714;SDS011;49858;48.956;9.076;2022-08-19T09:25:04;20.55;;;11.88;;
63714;SDS011;49858;48.956;9.076;2022-08-19T09:27:35;15.90;;;9.90;;
63714;SDS011;49858;48.956;9.076;2022-08-19T09:30:11;19.38;;;12.02;;
63714;SDS011;49858;48.956;9.076;2022-08-19T09:32:42;20.60;;;12.88;;
63714;SDS011;49858;48.956;9.076;2022-08-19T09:35:11;15.50;;;11.07;;
63714;SDS011;49858;48.956;9.076;2022-08-19T09:37:41;20.10;;;11.63;;
63714;SDS011;49858;48.956;9.076;2022-08-19T09:40:10;18.30;;;11.80;;
63714;SDS011;49858;48.956;9.076;2022-08-19T09:42:41;15.52;;;10.55;;
63714;SDS011;49858;48.956;9.076;2022-08-19T09:45:17;21.48;;;11.05;;
63714;SDS011;49858;48.956;9.076;2022-08-19T09:47:48;21.75;;;11.35;;
63714;SDS011;49858;48.956;9.076;2022-08-19T09:50:21;16.60;;;10.57;;
63714;SDS011;49858;48.956;9.076;2022-08-19T09:52:51;16.75;;;11.85;;
63714;SDS011;49858;48.956;9.076;2022-08-19T09:55:24;23.08;;;11.85;;
63714;SDS011;49858;48.956;9.076;2022-08-19T09:57:59;14.77;;;11.40;;
63714;SDS011;49858;48.956;9.076;2022-08-19T10:00:28;14.50;;;11.00;;
63714;SDS011;49858;48.956;9.076;2022-08-19T10:02:56;14.80;;;10.70;;
63714;SDS011;49858;48.956;9.076;2022-08-19T10:05:25;13.95;;;10.05;;
63714;SDS011;49858;48.956;9.076;2022-08-19T10:08:13;13.38;;;9.63;;
63714;SDS011;49858;48.956;9.076;2022-08-19T10:10:43;14.07;;;9.38;;
63714;SDS011;49858;48.956;9.076;2022-08-19T10:13:13;14.52;;;9.02;;
63714;SDS011;49858;48.956;9.076;2022-08-19T10:15:43;14.20;;;9.70;;
63714;SDS011;49858;48.956;9.076;2022-08-19T10:18:13;14.23;;;9.77;;
63714;SDS011;49858;48.956;9.076;2022-08-19T10:20:44;11.65;;;9.50;;
63714;SDS011;49858;48.956;9.076;2022-08-19T10:23:17;18.08;;;8.48;;
63714;SDS011;49858;48.956;9.076;2022-08-19T10:25:46;14.82;;;9.13;;
63714;SDS011;49858;48.956;9.076;2022-08-19T10:28:15;12.35;;;7.97;;
63714;SDS011;49858;48.956;9.076;2022-08-19T10:30:45;11.50;;;7.80;;
63714;SDS011;49858;48.956;9.076;2022-08-19T10:33:14;12.02;;;7.63;;
63714;SDS011;49858;48.956;9.076;2022-08-19T10:36:05;9.90;;;7.78;;
63714;SDS011;49858;48.956;9.076;2022-08-19T10:38:36;11.30;;;8.48;;
63714;SDS011;49858;48.956;9.076;2022-08-19T10:41:16;13.38;;;8.32;;
63714;SDS011;49858;48.956;9.076;2022-08-19T10:43:46;11.02;;;8.23;;
63714;SDS011;49858;48.956;9.076;2022-08-19T10:46:14;10.88;;;7.25;;
63714;SDS011;49858;48.956;9.076;2022-08-19T10:48:44;9.98;;;7.93;;
63714;SDS011;49858;48.956;9.076;2022-08-19T10:51:13;9.40;;;7.82;;
63714;SDS011;49858;48.956;9.076;2022-08-19T10:54:14;11.15;;;7.45;;
63714;SDS011;49858;48.956;9.076;2022-08-19T10:56:41;10.63;;;7.50;;
63714;SDS011;49858;48.956;9.076;2022-08-19T10:59:18;10.68;;;7.68;;
63714;SDS011;49858;48.956;9.076;2022-08-19T11:01:52;14.70;;;7.95;;
63714;SDS011;49858;48.956;9.076;2022-08-19T11:04:22;11.90;;;8.35;;
63714;SDS011;49858;48.956;9.076;2022-08-19T11:06:56;11.98;;;8.68;;
63714;SDS011;49858;48.956;9.076;2022-08-19T11:09:25;10.60;;;8.60;;
63714;SDS011;49858;48.956;9.076;2022-08-19T11:11:59;13.45;;;8.60;;
63714;SDS011;49858;48.956;9.076;2022-08-19T11:14:30;14.40;;;8.65;;
63714;SDS011;49858;48.956;9.076;2022-08-19T11:16:59;13.55;;;8.68;;
63714;SDS011;49858;48.956;9.076;2022-08-19T11:19:28;13.77;;;8.45;;
63714;SDS011;49858;48.956;9.076;2022-08-19T11:21:57;16.50;;;8.65;;
63714;SDS011;49858;48.956;9.076;2022-08-19T11:24:29;11.68;;;8.32;;
63714;SDS011;49858;48.956;9.076;2022-08-19T11:27:00;13.38;;;8.93;;
63714;SDS011;49858;48.956;9.076;2022-08-19T11:29:31;13.27;;;8.45;;
63714;SDS011;49858;48.956;9.076;2022-08-19T11:32:02;11.38;;;8.52;;
63714;SDS011;49858;48.956;9.076;2022-08-19T11:34:31;13.60;;;8.90;;
63714;SDS011;49858;48.956;9.076;2022-08-19T11:37:04;13.70;;;9.00;;
63714;SDS011;49858;48.956;9.076;2022-08-19T11:39:35;10.90;;;7.80;;
63714;SDS011;49858;48.956;9.076;2022-08-19T11:42:05;13.15;;;8.88;;
63714;SDS011;49858;48.956;9.076;2022-08-19T11:44:54;11.90;;;7.85;;
63714;SDS011;49858;48.956;9.076;2022-08-19T11:47:22;13.68;;;8.20;;
63714;SDS011;49858;48.956;9.076;2022-08-19T11:49:50;11.43;;;8.13;;
63714;SDS011;49858;48.956;9.076;2022-08-19T11:52:21;10.48;;;7.60;;
63714;SDS011;49858;48.956;9.076;2022-08-19T11:54:48;10.07;;;7.75;;
63714;SDS011;49858;48.956;9.076;2022-08-19T11:57:16;9.60;;;7.50;;
63714;SDS011;49858;48.956;9.076;2022-08-19T11:59:49;8.25;;;7.28;;
63714;SDS011;49858;48.956;9.076;2022-08-19T12:02:18;8.13;;;6.40;;
63714;SDS011;49858;48.956;9.076;2022-08-19T12:04:47;13.73;;;7.43;;
63714;SDS011;49858;48.956;9.076;2022-08-19T12:07:15;10.00;;;7.22;;
63714;SDS011;49858;48.956;9.076;2022-08-19T12:09:45;12.02;;;7.57;;
63714;SDS011;49858;48.956;9.076;2022-08-19T12:12:14;8.85;;;7.25;;
63714;SDS011;49858;48.956;9.076;2022-08-19T12:14:42;10.15;;;7.30;;
63714;SDS011;49858;48.956;9.076;2022-08-19T12:17:12;9.80;;;6.85;;
63714;SDS011;49858;48.956;9.076;2022-08-19T12:19:41;10.55;;;7.18;;
63714;SDS011;49858;48.956;9.076;2022-08-19T12:22:08;9.93;;;7.00;;
63714;SDS011;49858;48.956;9.076;2022-08-19T12:24:36;13.35;;;7.30;;
63714;SDS011;49858;48.956;9.076;2022-08-19T12:27:05;7.60;;;6.50;;
63714;SDS011;49858;48.956;9.076;2022-08-19T12:32:08;15.77;;;6.03;;
63714;SDS011;49858;48.956;9.076;2022-08-19T12:34:37;7.57;;;5.68;;
63714;SDS011;49858;48.956;9.076;2022-08-19T12:37:06;7.90;;;5.57;;
63714;SDS011;49858;48.956;9.076;2022-08-19T12:39:36;8.15;;;6.03;;
63714;SDS011;49858;48.956;9.076;2022-08-19T12:42:07;7.25;;;5.70;;
63714;SDS011;49858;48.956;9.076;2022-08-19T12:44:36;10.80;;;6.07;;
63714;SDS011;49858;48.956;9.076;2022-08-19T12:47:08;6.70;;;5.63;;
63714;SDS011;49858;48.956;9.076;2022-08-19T12:49:37;9.95;;;5.80;;
63714;SDS011;49858;48.956;9.076;2022-08-19T12:52:20;6.57;;;5.43;;
63714;SDS011;49858;48.956;9.076;2022-08-19T12:54:50;7.93;;;5.47;;
63714;SDS011;49858;48.956;9.076;2022-08-19T12:57:21;6.93;;;5.18;;
63714;SDS011;49858;48.956;9.076;2022-08-19T12:59:59;6.40;;;5.72;;
63714;SDS011;49858;48.956;9.076;2022-08-19T13:02:31;7.78;;;6.38;;
63714;SDS011;49858;48.956;9.076;2022-08-19T13:05:05;8.05;;;6.28;;
63714;SDS011;49858;48.956;9.076;2022-08-19T13:07:34;8.48;;;6.00;;
63714;SDS011;49858;48.956;9.076;2022-08-19T13:10:04;8.48;;;5.82;;
63714;SDS011;49858;48.956;9.076;2022-08-19T13:12:34;7.95;;;5.68;;
63714;SDS011;49858;48.956;9.076;2022-08-19T13:15:02;6.55;;;5.47;;
63714;SDS011;49858;48.956;9.076;2022-08-19T13:17:36;8.35;;;6.32;;
63714;SDS011;49858;48.956;9.076;2022-08-19T13:20:05;8.18;;;6.03;;
63714;SDS011;49858;48.956;9.076;2022-08-19T13:22:35;8.43;;;6.43;;
63714;SDS011;49858;48.956;9.076;2022-08-19T13:25:04;10.43;;;6.20;;
63714;SDS011;49858;48.956;9.076;2022-08-19T13:27:35;7.10;;;5.57;;
63714;SDS011;49858;48.956;9.076;2022-08-19T13:30:04;7.65;;;6.20;;
63714;SDS011;49858;48.956;9.076;2022-08-19T13:32:51;7.65;;;5.78;;
63714;SDS011;49858;48.956;9.076;2022-08-19T13:35:36;8.25;;;6.40;;
63714;SDS011;49858;48.956;9.076;2022-08-19T13:38:04;7.30;;;6.30;;
63714;SDS011;49858;48.956;9.076;2022-08-19T13:40:38;8.13;;;6.20;;
63714;SDS011;49858;48.956;9.076;2022-08-19T13:43:08;9.77;;;6.25;;
63714;SDS011;49858;48.956;9.076;2022-08-19T13:45:49;10.63;;;8.63;;
63714;SDS011;49858;48.956;9.076;2022-08-19T13:48:19;11.13;;;9.43;;
63714;SDS011;49858;48.956;9.076;2022-08-19T13:50:47;10.65;;;9.20;;
63714;SDS011;49858;48.956;9.076;2022-08-19T13:53:15;9.65;;;8.75;;
63714;SDS011;49858;48.956;9.076;2022-08-19T13:55:43;9.95;;;8.95;;
63714;SDS011;49858;48.956;9.076;2022-08-19T13:58:13;9.80;;;8.80;;
63714;SDS011;49858;48.956;9.076;2022-08-19T14:00:43;10.05;;;9.05;;
63714;SDS011;49858;48.956;9.076;2022-08-19T14:03:12;10.57;;;7.65;;
63714;SDS011;49858;48.956;9.076;2022-08-19T14:05:40;8.40;;;7.60;;
63714;SDS011;49858;48.956;9.076;2022-08-19T14:08:08;9.23;;;7.35;;
63714;SDS011;49858;48.956;9.076;2022-08-19T14:10:36;8.93;;;6.63;;
63714;SDS011;49858;48.956;9.076;2022-08-19T14:13:04;7.97;;;7.18;;
63714;SDS011;49858;48.956;9.076;2022-08-19T14:15:33;10.15;;;7.60;;
63714;SDS011;49858;48.956;9.076;2022-08-19T14:18:01;8.27;;;7.00;;
63714;SDS011;49858;48.956;9.076;2022-08-19T14:20:29;8.25;;;7.40;;
63714;SDS011;49858;48.956;9.076;2022-08-19T14:22:57;8.30;;;6.82;;
63714;SDS011;49858;48.956;9.076;2022-08-19T14:25:26;8.43;;;7.03;;
63714;SDS011;49858;48.956;9.076;2022-08-19T14:27:56;7.97;;;7.18;;
63714;SDS011;49858;48.956;9.076;2022-08-19T14:30:25;7.70;;;6.90;;
63714;SDS011;49858;48.956;9.076;2022-08-19T14:32:56;9.18;;;7.22;;
63714;SDS011;49858;48.956;9.076;2022-08-19T14:35:26;8.90;;;7.10;;
63714;SDS011;49858;48.956;9.076;2022-08-19T14:37:55;8.02;;;7.25;;
63714;SDS011;49858;48.956;9.076;2022-08-19T14:40:25;9.10;;;7.05;;
63714;SDS011;49858;48.956;9.076;2022-08-19T14:42:55;7.68;;;6.97;;
63714;SDS011;49858;48.956;9.076;2022-08-19T14:45:25;7.07;;;6.38;;
63714;SDS011;49858;48.956;9.076;2022-08-19T14:47:54;7.82;;;7.03;;
63714;SDS011;49858;48.956;9.076;2022-08-19T14:50:23;7.50;;;6.70;;
63714;SDS011;49858;48.956;9.076;2022-08-19T14:52:57;7.00;;;6.30;;
63714;SDS011;49858;48.956;9.076;2022-08-19T14:55:32;7.15;;;5.90;;
63714;SDS011;49858;48.956;9.076;2022-08-19T14:58:00;8.80;;;5.70;;